Time;durP1;ratioP1;P1;durP2;ratioP2;P2;SDS_P1;SDS_P2;PMS_P1;PMS_P2;Temp;Humidity;BMP_temperature;BMP_pressure;BME280_temperature;BME280_humidity;BME280_pressure;Samples;Min_cycle;Max_cycle;Signal;HPM_P1;HPM_P2
2023/08/25 00:01:15;;;;;;;15.70;9.57;;;24.30;99.90;;;;;;5033718;28;20025;-72
2023/08/25 00:03:41;;;;;;;19.00;9.43;;;24.30;99.90;;;;;;5033624;28;20362;-72
2023/08/25 00:06:07;;;;;;;23.83;10.07;;;;;;;;;;5033508;28;20026;-74
2023/08/25 00:08:33;;;;;;;19.48;11.23;;;24.00;99.90;;;;;;5033924;28;20098;-72
2023/08/25 00:10:59;;;;;;;21.40;11.25;;;24.00;99.90;;;;;;5033487;28;20468;-73
2023/08/25 00:13:25;;;;;;;18.55;10.68;;;24.00;99.90;;;;;;5027197;28;20022;-74
2023/08/25 00:15:50;;;;;;;17.42;11.20;;;24.00;99.90;;;;;;5033523;28;20055;-73
2023/08/25 00:18:16;;;;;;;16.83;10.48;;;24.20;99.90;;;;;;5033555;28;20029;-73
2023/08/25 00:20:42;;;;;;;20.20;10.40;;;;;;;;;;5033406;28;20483;-74
2023/08/25 00:23:08;;;;;;;19.13;10.57;;;24.00;99.90;;;;;;5033451;28;20029;-73
2023/08/25 00:25:34;;;;;;;15.70;10.00;;;24.00;99.90;;;;;;5033468;28;20469;-72
2023/08/25 00:28:00;;;;;;;18.02;11.65;;;24.00;99.90;;;;;;5033150;28;20048;-74
2023/08/25 00:30:26;;;;;;;19.92;10.05;;;24.00;99.90;;;;;;5014842;28;20060;-74
2023/08/25 00:32:54;;;;;;;17.55;10.02;;;24.00;99.90;;;;;;5033258;28;20032;-73
2023/08/25 00:35:20;;;;;;;18.05;10.27;;;24.00;99.90;;;;;;5033185;28;20488;-73
2023/08/25 00:37:46;;;;;;;16.17;9.25;;;24.00;99.90;;;;;;5014177;28;20030;-74
2023/08/25 00:40:12;;;;;;;17.75;10.13;;;23.90;99.90;;;;;;5014985;28;20029;-74
2023/08/25 00:42:38;;;;;;;16.90;10.23;;;23.90;99.90;;;;;;5032875;28;20057;-74
2023/08/25 00:45:04;;;;;;;18.50;10.40;;;23.80;99.90;;;;;;5032855;28;20354;-73
2023/08/25 00:47:30;;;;;;;18.77;10.27;;;23.70;99.90;;;;;;5014655;28;20041;-73
2023/08/25 00:49:57;;;;;;;14.73;9.70;;;23.60;99.90;;;;;;5032961;28;20100;-73
2023/08/25 00:52:23;;;;;;;15.85;9.82;;;23.60;99.90;;;;;;5032412;28;20713;-73
2023/08/25 00:54:53;;;;;;;15.98;9.85;;;23.50;99.90;;;;;;5015197;28;20409;-74
2023/08/25 00:57:20;;;;;;;17.35;9.43;;;23.60;99.90;;;;;;5032725;28;20390;-73
2023/08/25 00:59:46;;;;;;;17.65;9.63;;;23.50;99.90;;;;;;5032841;28;20021;-73
2023/08/25 01:02:12;;;;;;;20.58;10.20;;;23.60;99.90;;;;;;5031704;28;20045;-72
2023/08/25 01:04:38;;;;;;;18.17;10.35;;;23.60;99.90;;;;;;5013748;28;20021;-74
2023/08/25 01:07:06;;;;;;;17.25;9.48;;;;;;;;;;5013604;28;20049;-74
2023/08/25 01:09:36;;;;;;;18.92;10.20;;;23.50;99.90;;;;;;4998693;28;20018;-74
2023/08/25 01:12:12;;;;;;;19.23;10.07;;;23.50;99.90;;;;;;4998155;28;20538;-74
2023/08/25 01:14:41;;;;;;;20.05;10.18;;;23.50;99.90;;;;;;5028363;28;20030;-74
2023/08/25 01:17:26;;;;;;;17.60;10.32;;;23.60;99.90;;;;;;5032934;28;20030;-75
2023/08/25 01:19:58;;;;;;;13.05;9.57;;;23.60;99.90;;;;;;5015992;28;20037;-74
2023/08/25 01:23:00;;;;;;;20.15;9.80;;;23.70;99.90;;;;;;5031816;28;20021;-73
2023/08/25 01:25:28;;;;;;;18.73;10.50;;;23.60;99.90;;;;;;5023640;28;20079;-73
2023/08/25 01:27:56;;;;;;;19.92;10.57;;;23.50;99.90;;;;;;5015286;28;20099;-74
2023/08/25 01:30:26;;;;;;;15.02;9.38;;;23.50;99.90;;;;;;5032371;28;20032;-74
2023/08/25 01:32:53;;;;;;;19.30;11.13;;;23.40;99.90;;;;;;5033367;28;20026;-74
2023/08/25 01:35:50;;;;;;;18.30;10.90;;;23.40;99.90;;;;;;5033519;28;20551;-74
2023/08/25 01:38:38;;;;;;;14.27;9.32;;;23.30;99.90;;;;;;5015382;28;20179;-74
2023/08/25 01:41:11;;;;;;;15.65;9.35;;;23.30;99.90;;;;;;5032800;28;20079;-73
2023/08/25 01:43:40;;;;;;;18.25;10.00;;;23.20;99.90;;;;;;5031224;28;20041;-74
2023/08/25 01:46:09;;;;;;;16.17;9.38;;;23.20;99.90;;;;;;5014882;28;20045;-73
2023/08/25 01:48:39;;;;;;;19.05;10.05;;;23.20;99.90;;;;;;5033089;28;20029;-74
2023/08/25 01:51:06;;;;;;;17.92;10.93;;;23.20;99.90;;;;;;5013975;28;20029;-74
2023/08/25 01:53:32;;;;;;;16.60;11.00;;;23.20;99.90;;;;;;5032585;28;20468;-73
2023/08/25 01:55:58;;;;;;;21.23;11.10;;;23.10;99.90;;;;;;5015153;28;20041;-73
2023/08/25 01:58:24;;;;;;;16.98;11.23;;;23.00;99.90;;;;;;5014939;28;20029;-74
2023/08/25 02:00:49;;;;;;;17.98;10.73;;;23.00;99.90;;;;;;5013576;28;20499;-74
2023/08/25 02:03:17;;;;;;;19.98;11.48;;;;;;;;;;5033158;28;20176;-75
2023/08/25 02:05:43;;;;;;;16.33;10.57;;;23.00;99.90;;;;;;5015247;28;20503;-73
2023/08/25 02:08:12;;;;;;;19.52;10.23;;;23.00;99.90;;;;;;5015088;28;20064;-73
2023/08/25 02:10:38;;;;;;;14.70;9.82;;;23.00;99.90;;;;;;5031110;28;20421;-72
2023/08/25 02:13:04;;;;;;;16.60;10.30;;;23.00;99.90;;;;;;5032469;28;20465;-73
2023/08/25 02:15:30;;;;;;;14.32;9.90;;;23.00;99.90;;;;;;5014693;28;20076;-74
2023/08/25 02:17:55;;;;;;;18.90;11.23;;;23.10;99.90;;;;;;5032848;28;20025;-74
2023/08/25 02:20:21;;;;;;;17.30;11.60;;;23.00;99.90;;;;;;5031171;28;20040;-73
2023/08/25 02:22:47;;;;;;;18.30;10.38;;;23.00;99.90;;;;;;5012283;28;20030;-74
2023/08/25 02:25:13;;;;;;;17.95;10.60;;;23.10;99.90;;;;;;5014290;28;20037;-74
2023/08/25 02:27:39;;;;;;;17.42;10.20;;;23.00;99.90;;;;;;5032477;28;20056;-72
2023/08/25 02:30:06;;;;;;;17.58;10.48;;;23.00;99.90;;;;;;5014426;28;20128;-73
2023/08/25 02:32:31;;;;;;;16.55;10.38;;;23.00;99.90;;;;;;5012252;28;20029;-73
2023/08/25 02:34:57;;;;;;;21.02;11.85;;;22.90;99.90;;;;;;5014895;28;20102;-73
2023/08/25 02:37:23;;;;;;;16.65;9.95;;;22.90;99.90;;;;;;5032183;28;20025;-73
2023/08/25 02:39:49;;;;;;;17.75;10.50;;;22.90;99.90;;;;;;5028701;28;20071;-73
2023/08/25 02:42:15;;;;;;;19.58;9.70;;;;;;;;;;5030442;28;20024;-73
2023/08/25 02:44:41;;;;;;;17.73;9.85;;;22.80;99.90;;;;;;5027922;28;20064;-72
2023/08/25 02:47:07;;;;;;;16.88;10.90;;;22.90;99.90;;;;;;5031997;28;20033;-72
2023/08/25 02:49:38;;;;;;;19.25;10.88;;;22.80;99.90;;;;;;5032267;28;20048;-74
2023/08/25 02:52:07;;;;;;;15.68;10.13;;;22.70;99.90;;;;;;5031890;28;20025;-73
2023/08/25 02:54:33;;;;;;;15.45;10.32;;;22.70;99.90;;;;;;5021460;28;20032;-72
2023/08/25 02:56:59;;;;;;;14.85;9.50;;;22.70;99.90;;;;;;5036655;28;20018;-73
2023/08/25 02:59:25;;;;;;;15.30;9.13;;;22.60;99.90;;;;;;5013895;28;20546;-73
2023/08/25 03:01:51;;;;;;;17.25;10.15;;;22.60;99.90;;;;;;5014689;28;20032;-73
2023/08/25 03:04:17;;;;;;;16.95;10.70;;;22.60;99.90;;;;;;5027578;28;20389;-73
2023/08/25 03:06:44;;;;;;;25.13;11.25;;;22.70;99.90;;;;;;5007447;28;20119;-73
2023/08/25 03:09:10;;;;;;;21.17;11.98;;;22.70;99.90;;;;;;5013946;28;20037;-74
2023/08/25 03:11:35;;;;;;;19.85;9.70;;;22.70;99.90;;;;;;5014232;28;20052;-74
2023/08/25 03:14:04;;;;;;;20.73;10.55;;;22.60;99.90;;;;;;5005017;28;20369;-73
2023/08/25 03:16:31;;;;;;;17.45;10.48;;;22.60;99.90;;;;;;5012862;28;20476;-73
2023/08/25 03:18:57;;;;;;;27.42;11.90;;;22.60;99.90;;;;;;5019767;28;20511;-71
2023/08/25 03:21:25;;;;;;;27.33;11.55;;;22.60;99.90;;;;;;5013801;28;20029;-73
2023/08/25 03:23:51;;;;;;;18.77;10.65;;;22.70;99.90;;;;;;5010485;28;20113;-72
2023/08/25 03:26:18;;;;;;;19.23;12.15;;;22.70;99.90;;;;;;5015641;28;20029;-74
2023/08/25 03:28:47;;;;;;;20.98;12.13;;;22.70;99.90;;;;;;5017932;28;20536;-73
2023/08/25 03:31:13;;;;;;;19.30;10.85;;;22.60;99.90;;;;;;5035737;28;20116;-73
2023/08/25 03:33:39;;;;;;;20.40;12.60;;;22.70;99.90;;;;;;5017549;28;20021;-73
2023/08/25 03:36:05;;;;;;;19.75;12.07;;;22.70;99.90;;;;;;5016106;28;20029;-73
2023/08/25 03:38:32;;;;;;;21.83;10.98;;;22.70;99.90;;;;;;5016351;28;20033;-73
2023/08/25 03:40:58;;;;;;;23.08;12.35;;;22.70;99.90;;;;;;5014253;28;20036;-72
2023/08/25 03:43:24;;;;;;;21.95;12.25;;;22.60;99.90;;;;;;5018975;28;20131;-73
2023/08/25 03:45:52;;;;;;;20.67;11.77;;;22.50;99.90;;;;;;5017568;28;20036;-72
2023/08/25 03:48:18;;;;;;;25.45;12.68;;;22.50;99.90;;;;;;5013874;28;20033;-74
2023/08/25 03:50:47;;;;;;;19.48;10.48;;;22.60;99.90;;;;;;5035190;28;20024;-74
2023/08/25 03:53:14;;;;;;;26.92;11.82;;;22.60;99.90;;;;;;5017501;28;20504;-74
2023/08/25 03:55:39;;;;;;;21.60;11.90;;;22.70;99.90;;;;;;5016944;28;20039;-73
2023/08/25 03:58:05;;;;;;;18.02;11.27;;;22.70;99.90;;;;;;5013426;28;20385;-73
2023/08/25 04:00:31;;;;;;;17.67;11.02;;;22.70;99.90;;;;;;5013481;28;20497;-75
2023/08/25 04:02:57;;;;;;;17.52;10.55;;;22.70;99.90;;;;;;5017067;28;20036;-74
2023/08/25 04:05:23;;;;;;;14.27;10.90;;;22.60;99.90;;;;;;5016229;28;20040;-73
2023/08/25 04:07:49;;;;;;;19.60;11.68;;;22.70;99.90;;;;;;5015794;28;20083;-73
2023/08/25 04:10:15;;;;;;;15.23;10.82;;;22.70;99.90;;;;;;5015957;28;20478;-74
2023/08/25 04:12:41;;;;;;;16.30;10.32;;;22.90;99.90;;;;;;5017261;28;20061;-73
2023/08/25 04:15:07;;;;;;;14.63;9.00;;;23.10;99.90;;;;;;5016244;28;20072;-73
2023/08/25 04:17:36;;;;;;;16.58;9.18;;;23.20;99.90;;;;;;5016673;28;20034;-74
2023/08/25 04:20:02;;;;;;;14.45;10.35;;;23.40;99.90;;;;;;5011603;28;20116;-73
2023/08/25 04:22:28;;;;;;;14.52;10.10;;;23.70;99.90;;;;;;5017124;28;20025;-74
2023/08/25 04:24:56;;;;;;;15.57;10.15;;;24.00;99.90;;;;;;5016666;28;20036;-72
2023/08/25 04:27:23;;;;;;;16.63;10.48;;;24.20;99.90;;;;;;5012587;28;20084;-73
2023/08/25 04:29:51;;;;;;;20.40;9.60;;;24.60;99.90;;;;;;5024211;28;20036;-74
2023/08/25 04:32:19;;;;;;;15.68;9.70;;;25.00;99.90;;;;;;5016604;28;20029;-73
2023/08/25 04:34:45;;;;;;;18.73;9.57;;;25.30;99.90;;;;;;4999852;28;20025;-74
2023/08/25 04:37:11;;;;;;;16.63;8.73;;;25.70;99.90;;;;;;5016674;28;20496;-73
2023/08/25 04:39:37;;;;;;;19.35;10.18;;;25.90;99.90;;;;;;5016135;28;20028;-74
2023/08/25 04:42:03;;;;;;;15.75;9.95;;;26.20;99.90;;;;;;4998373;28;20559;-73
2023/08/25 04:44:29;;;;;;;14.70;9.50;;;26.00;99.90;;;;;;5032321;28;20069;-74
2023/08/25 04:46:55;;;;;;;18.90;11.75;;;25.90;99.90;;;;;;5016395;28;20038;-74
2023/08/25 04:49:21;;;;;;;20.98;11.50;;;26.20;99.90;;;;;;5016589;28;20021;-74
2023/08/25 04:51:48;;;;;;;23.17;11.05;;;26.50;99.90;;;;;;5015927;28;20029;-74
2023/08/25 04:54:14;;;;;;;29.13;12.02;;;26.20;99.90;;;;;;5015062;28;20033;-74
2023/08/25 04:56:44;;;;;;;20.98;11.38;;;26.40;99.90;;;;;;5016173;28;20017;-73
2023/08/25 04:59:11;;;;;;;16.25;10.30;;;26.80;99.90;;;;;;5016377;28;20132;-74
2023/08/25 05:01:36;;;;;;;21.27;10.68;;;27.00;99.90;;;;;;5016105;28;20068;-73
2023/08/25 05:04:02;;;;;;;13.35;9.32;;;27.50;99.90;;;;;;5014513;28;20065;-74
2023/08/25 05:06:28;;;;;;;15.30;9.77;;;28.40;99.90;;;;;;5015790;28;20042;-73
2023/08/25 05:08:56;;;;;;;15.85;9.32;;;29.00;98.80;;;;;;5016037;28;20033;-74
2023/08/25 05:11:22;;;;;;;17.65;9.20;;;29.30;97.90;;;;;;5016213;28;20472;-74
2023/08/25 05:13:48;;;;;;;21.75;9.52;;;29.50;99.90;;;;;;5016177;28;20116;-74
2023/08/25 05:16:17;;;;;;;15.52;9.20;;;28.70;97.00;;;;;;5014130;28;20034;-74
2023/08/25 05:19:09;;;;;;;18.53;9.83;;;28.20;97.30;;;;;;4992460;28;20101;-74
2023/08/25 05:21:35;;;;;;;17.63;9.60;;;27.10;99.90;;;;;;4992114;28;20041;-73
2023/08/25 05:24:20;;;;;;;18.70;9.77;;;;;;;;;;4975921;28;20034;-73
2023/08/25 05:26:50;;;;;;;18.75;10.52;;;26.90;99.90;;;;;;4975454;28;20050;-73
2023/08/25 05:29:16;;;;;;;19.05;10.75;;;27.00;99.90;;;;;;4991902;28;20134;-73
2023/08/25 05:31:43;;;;;;;18.10;11.25;;;27.00;99.90;;;;;;4975448;28;20113;-74
2023/08/25 05:34:28;;;;;;;18.63;11.50;;;27.00;99.90;;;;;;4992168;28;20085;-73
2023/08/25 05:36:56;;;;;;;16.88;11.10;;;26.90;99.90;;;;;;4974894;28;20038;-74
2023/08/25 05:39:23;;;;;;;35.28;11.45;;;26.60;99.90;;;;;;4992204;28;20093;-73
2023/08/25 05:41:49;;;;;;;19.00;11.90;;;26.70;99.90;;;;;;4991755;28;20527;-73
2023/08/25 05:44:15;;;;;;;23.15;11.52;;;26.50;99.90;;;;;;4975132;28;20460;-73
2023/08/25 05:46:41;;;;;;;19.50;11.80;;;26.60;99.90;;;;;;4974775;28;20425;-74
2023/08/25 05:49:07;;;;;;;24.30;11.02;;;26.60;99.90;;;;;;4991490;28;20100;-73
2023/08/25 05:51:32;;;;;;;19.63;10.98;;;26.70;99.90;;;;;;4975142;28;20031;-73
2023/08/25 05:53:58;;;;;;;15.70;9.48;;;27.00;99.90;;;;;;4985446;28;20497;-73
2023/08/25 05:56:25;;;;;;;22.60;11.50;;;27.20;99.90;;;;;;5011545;28;20443;-73
2023/08/25 05:58:51;;;;;;;18.17;9.85;;;27.40;99.90;;;;;;5031486;28;20049;-74
2023/08/25 06:01:18;;;;;;;17.98;10.23;;;27.50;99.90;;;;;;5014353;28;20073;-74
2023/08/25 06:03:44;;;;;;;23.25;10.02;;;27.50;99.90;;;;;;5032881;28;20028;-73
2023/08/25 06:06:09;;;;;;;17.83;10.63;;;27.70;99.90;;;;;;5032932;28;20030;-74
2023/08/25 06:08:36;;;;;;;22.17;11.35;;;28.00;99.90;;;;;;5031096;28;20164;-74
2023/08/25 06:11:02;;;;;;;17.42;11.35;;;28.10;99.90;;;;;;5032246;28;20028;-73
2023/08/25 06:13:28;;;;;;;20.55;12.07;;;28.30;99.90;;;;;;5031844;28;20029;-74
2023/08/25 06:15:54;;;;;;;23.25;11.32;;;28.40;99.90;;;;;;5024658;28;20021;-74
2023/08/25 06:18:20;;;;;;;18.00;10.27;;;;;;;;;;5032115;28;20468;-74
2023/08/25 06:20:50;;;;;;;16.52;10.32;;;28.50;99.90;;;;;;5032482;28;20112;-74
2023/08/25 06:23:15;;;;;;;16.08;10.20;;;28.60;98.00;;;;;;5026307;28;20087;-75
2023/08/25 06:25:43;;;;;;;18.77;11.30;;;28.40;97.60;;;;;;5032435;28;20038;-73
2023/08/25 06:28:09;;;;;;;17.38;11.13;;;27.90;98.30;;;;;;5032623;28;20116;-74
2023/08/25 06:30:35;;;;;;;19.08;11.95;;;28.10;99.40;;;;;;5029255;28;20109;-74
2023/08/25 06:33:02;;;;;;;21.85;12.35;;;28.20;99.90;;;;;;5014358;28;20029;-74
2023/08/25 06:35:29;;;;;;;21.70;12.85;;;28.40;99.90;;;;;;5032213;28;20084;-73
2023/08/25 06:37:55;;;;;;;22.65;12.38;;;28.50;99.90;;;;;;5032375;28;20027;-73
2023/08/25 06:40:21;;;;;;;27.75;11.98;;;28.60;99.90;;;;;;5031970;28;20420;-74
2023/08/25 06:42:46;;;;;;;23.15;12.50;;;28.80;99.90;;;;;;5030726;28;20026;-72
2023/08/25 06:45:12;;;;;;;42.08;12.68;;;29.00;99.90;;;;;;5031827;28;20045;-74
2023/08/25 06:47:38;;;;;;;33.75;12.63;;;29.10;99.60;;;;;;5032310;28;20037;-72
2023/08/25 06:50:08;;;;;;;26.30;12.65;;;29.20;99.70;;;;;;5032012;28;20029;-72
2023/08/25 06:52:36;;;;;;;23.65;11.20;;;29.10;99.70;;;;;;5030217;28;20026;-73
2023/08/25 06:55:02;;;;;;;22.65;11.85;;;29.50;99.80;;;;;;5044698;28;20476;-73
2023/08/25 06:57:29;;;;;;;19.08;11.60;;;29.30;99.00;;;;;;5032208;28;20018;-72
2023/08/25 06:59:54;;;;;;;20.85;11.68;;;29.70;99.00;;;;;;5031273;28;20036;-73
2023/08/25 07:02:20;;;;;;;25.38;11.10;;;29.80;98.30;;;;;;5031649;28;20380;-75
2023/08/25 07:04:46;;;;;;;21.38;12.00;;;29.50;98.40;;;;;;5030482;28;20026;-72
2023/08/25 07:07:12;;;;;;;21.65;11.13;;;30.00;98.80;;;;;;5031760;28;20048;-73
2023/08/25 07:09:40;;;;;;;23.20;11.07;;;;;;;;;;5031735;28;20018;-72
2023/08/25 07:12:06;;;;;;;15.57;10.55;;;30.30;95.50;;;;;;5031705;28;20109;-73
2023/08/25 07:14:32;;;;;;;18.65;9.48;;;30.40;96.00;;;;;;5010527;28;20067;-74
2023/08/25 07:16:58;;;;;;;15.88;9.82;;;30.50;94.40;;;;;;5027569;28;20026;-74
2023/08/25 07:19:24;;;;;;;20.50;10.73;;;30.20;93.90;;;;;;5030050;28;20457;-74
2023/08/25 07:21:50;;;;;;;16.80;9.75;;;30.80;94.40;;;;;;5031453;28;20083;-74
2023/08/25 07:24:16;;;;;;;20.13;10.13;;;;;;;;;;5028306;28;20036;-75
2023/08/25 07:26:42;;;;;;;17.10;9.82;;;;;;;;;;5031608;28;20144;-74
2023/08/25 07:29:08;;;;;;;19.38;8.98;;;31.70;99.90;;;;;;5029670;28;20046;-74
2023/08/25 07:31:34;;;;;;;14.98;8.93;;;31.70;99.90;;;;;;5030046;28;20037;-75
2023/08/25 07:34:00;;;;;;;23.10;10.00;;;31.70;98.20;;;;;;5031745;28;20071;-74
2023/08/25 07:36:25;;;;;;;21.05;10.55;;;31.20;98.10;;;;;;5031788;28;20493;-74
2023/08/25 07:38:51;;;;;;;20.65;10.07;;;31.20;98.10;;;;;;5013591;28;20037;-74
2023/08/25 07:41:20;;;;;;;20.33;9.93;;;31.50;98.90;;;;;;5029680;28;20021;-74
2023/08/25 07:43:46;;;;;;;16.63;8.95;;;;;;;;;;5031493;28;20046;-74
2023/08/25 07:46:12;;;;;;;20.38;9.77;;;32.10;99.90;;;;;;5031216;28;20026;-74
2023/08/25 07:48:38;;;;;;;24.05;9.93;;;32.30;99.90;;;;;;5031420;28;20042;-74
2023/08/25 07:51:04;;;;;;;15.50;8.75;;;32.60;99.90;;;;;;5031148;28;20028;-75
2023/08/25 07:53:31;;;;;;;15.50;8.27;;;32.90;99.90;;;;;;5029862;28;20024;-75
2023/08/25 07:55:58;;;;;;;17.33;7.97;;;;;;;;;;5031430;28;20033;-75
2023/08/25 07:58:24;;;;;;;13.52;7.72;;;33.20;87.80;;;;;;5030979;28;20024;-75
2023/08/25 08:00:50;;;;;;;27.70;8.32;;;33.30;84.80;;;;;;5028972;28;20033;-74
2023/08/25 08:03:16;;;;;;;15.32;7.25;;;33.10;83.40;;;;;;5029376;28;20056;-75
2023/08/25 08:05:42;;;;;;;16.10;7.43;;;33.20;84.00;;;;;;5031376;28;20087;-76
2023/08/25 08:08:09;;;;;;;19.88;8.73;;;33.40;82.40;;;;;;5030848;28;20117;-75
2023/08/25 08:10:39;;;;;;;18.23;8.35;;;33.30;81.50;;;;;;5032065;28;20365;-74
2023/08/25 08:13:05;;;;;;;19.50;8.57;;;33.00;81.80;;;;;;5033245;28;20064;-74
2023/08/25 08:15:31;;;;;;;25.98;7.82;;;33.20;81.10;;;;;;5035059;28;20493;-74
2023/08/25 08:17:58;;;;;;;16.60;8.18;;;33.30;80.80;;;;;;5034221;28;20057;-74
2023/08/25 08:20:25;;;;;;;20.52;7.78;;;33.70;97.10;;;;;;5035042;28;20029;-75
2023/08/25 08:22:51;;;;;;;17.13;7.40;;;33.10;96.50;;;;;;5034529;28;20413;-75
2023/08/25 08:25:19;;;;;;;11.93;7.10;;;32.80;79.50;;;;;;5026969;28;20374;-72
2023/08/25 08:27:46;;;;;;;14.30;7.07;;;33.00;77.70;;;;;;5016389;28;20041;-75
2023/08/25 08:30:16;;;;;;;13.13;7.00;;;33.10;79.70;;;;;;5034305;28;20044;-75
2023/08/25 08:32:42;;;;;;;14.67;5.93;;;33.60;95.80;;;;;;5034629;28;20017;-74
2023/08/25 08:35:08;;;;;;;11.57;6.25;;;33.60;94.40;;;;;;5033944;28;20032;-75
2023/08/25 08:37:38;;;;;;;9.70;6.05;;;33.40;75.70;;;;;;5034584;28;20108;-74
2023/08/25 08:40:05;;;;;;;10.05;6.05;;;33.20;76.00;;;;;;5033367;28;20453;-75
2023/08/25 08:42:33;;;;;;;10.43;5.95;;;33.20;75.60;;;;;;5033864;28;20022;-74
2023/08/25 08:45:07;;;;;;;9.82;6.47;;;32.90;93.40;;;;;;5032223;28;20488;-75
2023/08/25 08:47:36;;;;;;;9.93;6.32;;;32.70;95.50;;;;;;5021785;28;20423;-75
2023/08/25 08:50:04;;;;;;;10.68;5.82;;;32.60;92.30;;;;;;5034312;28;20111;-74
2023/08/25 08:52:31;;;;;;;10.75;6.35;;;32.70;92.30;;;;;;5034380;28;20025;-75
2023/08/25 08:54:59;;;;;;;12.93;6.72;;;33.20;92.80;;;;;;5022398;28;20022;-74
2023/08/25 08:57:26;;;;;;;13.15;6.53;;;33.50;94.50;;;;;;5033453;28;20068;-75
2023/08/25 08:59:53;;;;;;;8.48;5.68;;;33.00;94.60;;;;;;5034087;28;20503;-74
2023/08/25 09:02:21;;;;;;;10.32;5.88;;;;;;;;;;5034099;28;20029;-75
2023/08/25 09:04:51;;;;;;;8.82;5.80;;;33.60;98.10;;;;;;5025568;28;20028;-74
2023/08/25 09:07:18;;;;;;;17.38;6.88;;;34.00;77.80;;;;;;5032241;28;20120;-74
2023/08/25 09:09:45;;;;;;;13.13;5.65;;;34.40;94.60;;;;;;5033786;28;20097;-75
2023/08/25 09:12:15;;;;;;;12.18;6.68;;;;;;;;;;5034070;28;20041;-74
2023/08/25 09:14:42;;;;;;;20.13;7.05;;;34.50;74.70;;;;;;5033572;28;20009;-74
2023/08/25 09:17:14;;;;;;;17.80;6.75;;;34.70;76.90;;;;;;5026948;28;20057;-73
2023/08/25 09:19:40;;;;;;;11.32;5.40;;;34.70;76.50;;;;;;5031650;28;20033;-74
2023/08/25 09:22:13;;;;;;;8.77;5.43;;;34.20;74.60;;;;;;5026360;28;20118;-75
2023/08/25 09:24:42;;;;;;;13.20;5.38;;;33.40;73.90;;;;;;5011334;28;20095;-76
2023/08/25 09:27:25;;;;;;;8.45;5.10;;;33.70;74.70;;;;;;5026061;28;20032;-76
2023/08/25 09:30:04;;;;;;;13.85;5.43;;;33.50;93.30;;;;;;5030411;28;20032;-76
2023/08/25 09:32:30;;;;;;;7.07;5.18;;;33.60;94.40;;;;;;5031564;28;20032;-74
2023/08/25 09:35:12;;;;;;;9.98;5.07;;;33.70;94.70;;;;;;5031834;28;20040;-75
2023/08/25 09:37:42;;;;;;;10.38;5.30;;;34.10;92.70;;;;;;5029245;28;20040;-73
2023/08/25 09:40:14;;;;;;;13.65;5.60;;;34.20;74.20;;;;;;5031818;28;20033;-74
2023/08/25 09:42:40;;;;;;;9.90;5.05;;;34.20;72.50;;;;;;5027897;28;20018;-75
2023/08/25 09:45:07;;;;;;;9.95;5.70;;;33.60;72.50;;;;;;5031412;28;20139;-76
2023/08/25 09:47:33;;;;;;;22.42;4.88;;;33.60;73.50;;;;;;5031411;28;20041;-75
2023/08/25 09:49:59;;;;;;;7.90;5.07;;;33.50;73.00;;;;;;5029223;28;20021;-74
2023/08/25 09:52:29;;;;;;;10.95;5.05;;;33.60;72.40;;;;;;5029884;28;20439;-75
2023/08/25 09:54:55;;;;;;;15.70;5.40;;;33.30;92.30;;;;;;5032916;28;20036;-75
2023/08/25 09:57:23;;;;;;;11.57;4.65;;;33.40;72.60;;;;;;5033062;28;20389;-74
2023/08/25 09:59:49;;;;;;;9.57;5.35;;;33.50;73.00;;;;;;5032573;28;20061;-75
2023/08/25 10:02:16;;;;;;;9.18;4.28;;;33.60;72.00;;;;;;5033141;28;20070;-72
2023/08/25 10:04:42;;;;;;;10.95;5.32;;;33.70;71.40;;;;;;5032726;28;20090;-74
2023/08/25 10:07:09;;;;;;;8.98;4.57;;;34.20;93.10;;;;;;5033022;28;20060;-74
2023/08/25 10:09:35;;;;;;;7.57;4.93;;;34.10;72.40;;;;;;5032707;28;20546;-74
2023/08/25 10:12:04;;;;;;;9.95;5.13;;;34.20;70.70;;;;;;5033061;28;20100;-74
2023/08/25 10:14:33;;;;;;;9.05;4.32;;;34.20;70.90;;;;;;5032616;28;20029;-74
2023/08/25 10:17:03;;;;;;;12.55;4.70;;;34.20;70.40;;;;;;5032774;28;20473;-74
2023/08/25 10:19:32;;;;;;;12.63;5.20;;;34.30;71.40;;;;;;5032626;28;20033;-75
2023/08/25 10:21:58;;;;;;;16.85;5.47;;;34.20;69.70;;;;;;5032547;28;20025;-75
2023/08/25 10:24:26;;;;;;;6.93;4.57;;;34.30;70.20;;;;;;5032698;28;20431;-74
2023/08/25 10:26:52;;;;;;;6.15;4.32;;;34.40;70.70;;;;;;5032473;28;20033;-73
2023/08/25 10:29:21;;;;;;;10.70;4.43;;;34.20;70.00;;;;;;5032466;28;20032;-75
2023/08/25 10:31:51;;;;;;;9.05;4.72;;;34.20;71.80;;;;;;5032258;28;20148;-74
2023/08/25 10:34:38;;;;;;;8.85;5.53;;;34.40;71.00;;;;;;5032050;28;20022;-74
2023/08/25 10:37:12;;;;;;;8.30;4.90;;;34.20;72.60;;;;;;5032416;28;20032;-75
2023/08/25 10:39:46;;;;;;;8.07;4.78;;;34.30;71.90;;;;;;5031914;28;20396;-74
2023/08/25 10:42:12;;;;;;;9.73;5.25;;;34.50;72.20;;;;;;5032309;28;20049;-73
2023/08/25 10:44:40;;;;;;;6.85;4.63;;;34.30;71.90;;;;;;5031741;28;20408;-73
2023/08/25 10:47:06;;;;;;;8.00;4.55;;;34.40;71.50;;;;;;5031833;28;20142;-72
2023/08/25 10:49:38;;;;;;;8.18;4.78;;;34.50;70.30;;;;;;5032562;28;20149;-74
2023/08/25 10:52:15;;;;;;;9.43;5.18;;;34.60;70.40;;;;;;5031877;28;20029;-74
2023/08/25 10:55:21;;;;;;;8.70;5.13;;;34.20;70.80;;;;;;5040990;28;20033;-73
2023/08/25 10:57:50;;;;;;;7.70;4.80;;;34.40;70.50;;;;;;5019961;28;20030;-72
2023/08/25 11:00:33;;;;;;;7.20;4.97;;;33.90;70.40;;;;;;5031633;28;20082;-73
2023/08/25 11:03:01;;;;;;;9.45;5.10;;;34.20;71.80;;;;;;5031606;28;20030;-73
2023/08/25 11:05:33;;;;;;;9.15;5.40;;;34.10;71.20;;;;;;5031987;28;20057;-72
2023/08/25 11:08:03;;;;;;;8.27;4.35;;;34.00;70.70;;;;;;5031655;28;20123;-73
2023/08/25 11:10:35;;;;;;;9.88;5.22;;;34.10;70.70;;;;;;5031878;28;20118;-72
2023/08/25 11:13:07;;;;;;;7.55;5.20;;;34.10;70.80;;;;;;5031563;28;20034;-74
2023/08/25 11:15:39;;;;;;;9.55;5.22;;;34.10;70.90;;;;;;5031824;28;20029;-73
2023/08/25 11:18:06;;;;;;;8.68;4.93;;;33.90;70.80;;;;;;5032104;28;20397;-74
2023/08/25 11:20:31;;;;;;;9.48;5.40;;;34.20;72.60;;;;;;5031473;28;20385;-74
2023/08/25 11:22:59;;;;;;;7.82;5.22;;;34.40;71.90;;;;;;5031795;28;20037;-73
2023/08/25 11:25:26;;;;;;;7.97;4.85;;;34.30;72.20;;;;;;5000770;28;20014;-73
2023/08/25 11:27:53;;;;;;;7.75;4.93;;;34.50;71.20;;;;;;5031402;28;20530;-74
2023/08/25 11:30:19;;;;;;;10.60;4.18;;;34.00;70.00;;;;;;5031457;28;20480;-73
2023/08/25 11:32:50;;;;;;;8.82;4.75;;;34.10;72.80;;;;;;5031323;28;20172;-71
2023/08/25 11:35:16;;;;;;;9.70;5.40;;;34.20;71.10;;;;;;5031832;28;20061;-73
2023/08/25 11:37:46;;;;;;;10.43;5.13;;;34.20;71.00;;;;;;5031351;28;20021;-71
2023/08/25 11:40:18;;;;;;;10.55;5.32;;;34.00;71.20;;;;;;5031742;28;20472;-73
2023/08/25 11:42:45;;;;;;;10.18;5.40;;;34.20;71.40;;;;;;5030868;28;20166;-72
2023/08/25 11:45:11;;;;;;;7.40;4.80;;;34.20;71.30;;;;;;5031444;28;20112;-72
2023/08/25 11:47:38;;;;;;;6.72;4.20;;;34.40;72.20;;;;;;5034776;28;20040;-73
2023/08/25 11:50:04;;;;;;;5.82;3.85;;;34.30;71.80;;;;;;5036050;28;20334;-72
2023/08/25 11:52:32;;;;;;;6.72;4.30;;;34.40;70.80;;;;;;5035884;28;20087;-76
2023/08/25 11:54:58;;;;;;;10.65;5.00;;;34.50;71.30;;;;;;5034931;28;20449;-72
2023/08/25 11:57:34;;;;;;;12.18;5.40;;;34.70;70.60;;;;;;5035567;28;20029;-73
2023/08/25 12:00:03;;;;;;;7.60;4.82;;;34.70;71.60;;;;;;5034824;28;20017;-74
2023/08/25 12:02:30;;;;;;;6.97;4.40;;;34.50;69.20;;;;;;5035014;28;20049;-73
2023/08/25 12:04:57;;;;;;;8.23;4.60;;;34.70;68.60;;;;;;5034609;28;20045;-74
2023/08/25 12:07:24;;;;;;;7.30;4.00;;;34.70;67.70;;;;;;5034905;28;20473;-74
2023/08/25 12:09:57;;;;;;;9.85;4.57;;;34.60;67.10;;;;;;5035054;28;20026;-72
2023/08/25 12:12:24;;;;;;;8.35;4.68;;;34.50;66.60;;;;;;5033123;28;20037;-72
2023/08/25 12:14:53;;;;;;;11.18;4.78;;;34.40;68.90;;;;;;5033312;28;20021;-73
2023/08/25 12:17:27;;;;;;;8.25;4.65;;;34.50;68.40;;;;;;5034651;28;20052;-72
2023/08/25 12:19:55;;;;;;;6.03;4.28;;;34.50;67.90;;;;;;5022581;28;20453;-72
2023/08/25 12:22:25;;;;;;;8.65;4.47;;;34.50;68.20;;;;;;5034480;28;20044;-73
2023/08/25 12:24:51;;;;;;;7.78;4.30;;;34.70;70.20;;;;;;5034661;28;20033;-71
2023/08/25 12:27:18;;;;;;;9.70;4.30;;;34.80;68.70;;;;;;5034624;28;20083;-73
2023/08/25 12:29:44;;;;;;;11.43;4.20;;;34.70;69.00;;;;;;5034698;28;20018;-74
2023/08/25 12:32:10;;;;;;;9.95;5.18;;;34.20;66.80;;;;;;5034653;28;20025;-72
2023/08/25 12:34:36;;;;;;;10.65;5.47;;;34.40;68.10;;;;;;5034572;28;20029;-72
2023/08/25 12:37:05;;;;;;;11.75;5.10;;;34.60;69.60;;;;;;5034413;28;20025;-73
2023/08/25 12:39:31;;;;;;;8.80;5.65;;;34.40;68.00;;;;;;5034286;28;20030;-72
2023/08/25 12:41:57;;;;;;;10.43;5.13;;;34.40;68.70;;;;;;5034398;28;20025;-72